createdAt,value
2018-04-24T00:01:05.579Z,17.10
2018-04-24T00:03:33.072Z,16.37
2018-04-24T00:06:01.352Z,16.50
2018-04-24T00:08:29.609Z,17.30
2018-04-24T00:10:57.863Z,16.90
2018-04-24T00:13:25.375Z,16.20
2018-04-24T00:15:52.864Z,16.97
2018-04-24T00:18:20.446Z,16.93
2018-04-24T00:20:48.654Z,16.13
2018-04-24T00:23:16.911Z,16.73
2018-04-24T00:25:44.424Z,16.50
2018-04-24T00:28:11.915Z,16.63
2018-04-24T00:30:39.403Z,15.77
2018-04-24T00:33:07.686Z,15.10
2018-04-24T00:35:35.939Z,15.97
2018-04-24T00:38:04.955Z,15.63
2018-04-24T00:40:33.211Z,15.47
2018-04-24T00:43:00.723Z,16.27
2018-04-24T00:45:28.215Z,15.53
2018-04-24T00:47:55.705Z,15.40
2018-04-24T00:50:23.979Z,15.73
2018-04-24T00:52:52.335Z,15.57
2018-04-24T00:55:20.614Z,15.93
2018-04-24T00:57:48.103Z,15.27
2018-04-24T01:00:15.598Z,15.57
2018-04-24T01:02:43.880Z,15.17
2018-04-24T01:05:12.140Z,15.30
2018-04-24T01:07:39.655Z,14.63
2018-04-24T01:10:07.912Z,14.77
2018-04-24T01:12:35.428Z,14.73
2018-04-24T01:15:02.920Z,14.53
2018-04-24T01:17:30.416Z,15.20
2018-04-24T01:19:58.696Z,14.60
2018-04-24T01:22:26.956Z,14.33
2018-04-24T01:24:54.472Z,13.20
2018-04-24T01:27:21.967Z,13.90
2018-04-24T01:29:50.223Z,14.07
2018-04-24T01:32:17.735Z,13.83
2018-04-24T01:34:45.223Z,13.10
2018-04-24T01:37:12.735Z,13.37
2018-04-24T01:39:40.999Z,13.40
2018-04-24T01:42:08.491Z,13.27
2018-04-24T01:44:36.006Z,13.03
2018-04-24T01:47:03.516Z,13.53
2018-04-24T01:49:31.027Z,12.23
2018-04-24T01:51:58.519Z,13.80
2018-04-24T01:54:26.030Z,14.00
2018-04-24T01:56:53.520Z,13.60
2018-04-24T01:59:21.775Z,13.63
2018-04-24T02:01:49.288Z,13.97
2018-04-24T02:04:16.784Z,14.00
2018-04-24T02:06:44.300Z,14.80
2018-04-24T02:09:11.796Z,14.17
2018-04-24T02:11:39.297Z,15.17
2018-04-24T02:14:07.584Z,13.30
2018-04-24T02:16:35.093Z,15.20
2018-04-24T02:19:02.865Z,12.90
2018-04-24T02:21:30.370Z,14.40
2018-04-24T02:23:57.897Z,13.73
2018-04-24T02:26:26.168Z,13.80
2018-04-24T02:28:53.673Z,14.03
2018-04-24T02:31:21.198Z,14.43
2018-04-24T02:33:49.470Z,13.80
2018-04-24T02:36:17.757Z,13.63
2018-04-24T02:38:46.025Z,13.10
2018-04-24T02:41:14.318Z,14.30
2018-04-24T02:43:42.586Z,14.30
2018-04-24T02:46:10.857Z,14.10
2018-04-24T02:48:39.145Z,13.40
2018-04-24T02:51:07.411Z,13.67
2018-04-24T02:53:35.701Z,13.40
2018-04-24T02:56:03.205Z,13.50
2018-04-24T02:58:30.734Z,14.40
2018-04-24T03:00:58.240Z,13.70
2018-04-24T03:03:25.766Z,13.87
2018-04-24T03:05:53.290Z,14.03
2018-04-24T03:08:21.585Z,13.90
2018-04-24T03:10:49.113Z,14.10
2018-04-24T03:13:17.378Z,13.77
2018-04-24T03:15:46.408Z,14.23
2018-04-24T03:18:13.917Z,14.70
2018-04-24T03:20:41.441Z,13.77
2018-04-24T03:23:08.940Z,13.63
2018-04-24T03:25:36.441Z,14.43
2018-04-24T03:28:03.966Z,14.07
2018-04-24T03:30:31.468Z,13.23
2018-04-24T03:32:58.998Z,13.80
2018-04-24T03:35:27.270Z,14.30
2018-04-24T03:37:55.556Z,14.10
2018-04-24T03:40:23.821Z,14.03
2018-04-24T03:42:52.093Z,14.40
2018-04-24T03:45:19.621Z,15.70
2018-04-24T03:47:47.125Z,14.43
2018-04-24T03:50:15.421Z,14.00
2018-04-24T03:52:42.925Z,14.40
2018-04-24T03:55:10.449Z,14.67
2018-04-24T03:57:38.027Z,14.97
2018-04-24T04:00:05.469Z,15.57
2018-04-24T04:02:32.993Z,14.73
2018-04-24T04:05:01.261Z,13.73
2018-04-24T04:07:28.786Z,14.00
2018-04-24T04:09:56.290Z,13.60
2018-04-24T04:12:24.580Z,14.10
2018-04-24T04:14:52.080Z,13.97
2018-04-24T04:17:31.537Z,14.93
2018-04-24T04:20:10.722Z,14.60
2018-04-24T04:22:50.237Z,14.40
2018-04-24T04:25:18.501Z,14.13
2018-04-24T04:27:46.770Z,13.80
2018-04-24T04:30:15.213Z,15.00
2018-04-24T04:32:42.722Z,15.07
2018-04-24T04:35:11.019Z,13.30
2018-04-24T04:37:38.525Z,12.93
2018-04-24T04:40:06.054Z,13.83
2018-04-24T04:42:33.553Z,13.30
2018-04-24T04:45:01.053Z,13.00
2018-04-24T04:47:28.580Z,14.00
2018-04-24T04:49:56.081Z,13.70
2018-04-24T04:52:23.609Z,13.17
2018-04-24T04:54:51.873Z,12.73
2018-04-24T04:57:19.397Z,13.40
2018-04-24T04:59:46.896Z,13.97
2018-04-24T05:02:14.397Z,13.10
2018-04-24T05:04:41.926Z,12.00
2018-04-24T05:07:10.193Z,12.30
2018-04-24T05:09:38.490Z,13.70
2018-04-24T05:12:06.082Z,13.20
2018-04-24T05:14:33.542Z,12.73
2018-04-24T05:17:01.045Z,13.17
2018-04-24T05:19:29.312Z,12.40
2018-04-24T05:21:56.832Z,12.50
2018-04-24T05:24:24.333Z,13.20
2018-04-24T05:26:51.861Z,13.10
2018-04-24T05:29:19.369Z,13.57
2018-04-24T05:31:47.965Z,12.10
2018-04-24T05:34:15.474Z,12.30
2018-04-24T05:36:42.981Z,13.23
2018-04-24T05:39:10.505Z,12.47
2018-04-24T05:41:38.005Z,13.43
2018-04-24T05:44:05.534Z,13.00
2018-04-24T05:46:33.801Z,12.13
2018-04-24T05:49:01.329Z,19.10
2018-04-24T05:51:28.940Z,13.50
2018-04-24T05:53:56.373Z,13.60
2018-04-24T05:56:23.877Z,13.23
2018-04-24T05:58:51.404Z,11.30
2018-04-24T06:01:19.670Z,11.43
2018-04-24T06:03:47.201Z,9.40
2018-04-24T06:06:14.696Z,9.60
2018-04-24T06:08:43.016Z,8.70
2018-04-24T06:11:11.256Z,8.30
2018-04-24T06:13:39.521Z,8.50
2018-04-24T06:16:07.049Z,8.23
2018-04-24T06:18:34.550Z,7.63
2018-04-24T06:21:02.849Z,7.20
2018-04-24T06:23:30.370Z,7.13
2018-04-24T06:25:57.870Z,7.40
2018-04-24T06:28:25.452Z,7.10
2018-04-24T06:30:53.664Z,7.33
2018-04-24T06:33:21.185Z,7.43
2018-04-24T06:35:48.685Z,9.17
2018-04-24T06:38:16.209Z,8.73
2018-04-24T06:40:43.703Z,7.83
2018-04-24T06:43:11.994Z,7.90
2018-04-24T06:45:40.261Z,10.60
2018-04-24T06:48:08.529Z,10.47
2018-04-24T06:50:36.057Z,10.70
2018-04-24T06:53:03.561Z,11.60
2018-04-24T06:55:31.853Z,11.00
2018-04-24T06:57:59.356Z,10.43
2018-04-24T07:00:26.889Z,12.00
2018-04-24T07:02:54.389Z,10.67
2018-04-24T07:05:21.921Z,11.90
2018-04-24T07:07:49.421Z,12.40
2018-04-24T07:10:17.688Z,11.57
2018-04-24T07:12:45.213Z,12.47
2018-04-24T07:15:12.714Z,13.60
2018-04-24T07:17:41.014Z,14.20
2018-04-24T07:20:08.517Z,14.43
2018-04-24T07:22:36.053Z,15.13
2018-04-24T07:25:03.553Z,13.07
2018-04-24T07:27:31.081Z,13.47
2018-04-24T07:29:58.605Z,13.20
2018-04-24T07:32:26.877Z,13.20
2018-04-24T07:34:55.164Z,13.57
2018-04-24T07:37:22.770Z,13.50
2018-04-24T07:39:50.294Z,14.47
2018-04-24T07:42:17.802Z,14.23
2018-04-24T07:44:45.328Z,16.53
2018-04-24T07:47:12.838Z,16.93
2018-04-24T07:49:41.126Z,18.60
2018-04-24T07:52:09.394Z,17.70
2018-04-24T07:54:37.664Z,15.77
2018-04-24T07:57:05.953Z,15.73
2018-04-24T07:59:34.248Z,16.87
2018-04-24T08:02:01.773Z,15.97
2018-04-24T08:04:29.272Z,15.00
2018-04-24T08:06:56.817Z,12.53
2018-04-24T08:09:24.321Z,14.00
2018-04-24T08:11:52.433Z,14.40
2018-04-24T08:14:20.700Z,13.40
2018-04-24T08:16:48.225Z,12.63
2018-04-24T08:19:15.725Z,11.60
2018-04-24T08:21:44.013Z,11.70
2018-04-24T08:24:12.281Z,10.90
2018-04-24T08:26:40.568Z,11.17
2018-04-24T08:29:08.836Z,10.33
2018-04-24T08:31:37.138Z,11.17
2018-04-24T08:34:04.637Z,10.77
2018-04-24T08:36:32.925Z,9.70
2018-04-24T08:39:00.468Z,10.17
2018-04-24T08:41:27.970Z,10.07
2018-04-24T08:43:56.237Z,10.40
2018-04-24T08:46:24.523Z,9.47
2018-04-24T08:48:52.785Z,9.07
2018-04-24T08:51:20.305Z,8.47
2018-04-24T08:53:47.813Z,10.17
2018-04-24T08:56:16.114Z,9.10
2018-04-24T08:58:43.626Z,9.20
2018-04-24T09:01:11.145Z,8.10
2018-04-24T09:03:38.641Z,6.80
2018-04-24T09:06:06.157Z,7.07
2018-04-24T09:08:33.678Z,6.80
2018-04-24T09:11:01.196Z,6.80
2018-04-24T09:13:31.916Z,6.00
2018-04-24T09:15:59.450Z,5.87
2018-04-24T09:18:27.717Z,6.37
2018-04-24T09:20:56.001Z,5.80
2018-04-24T09:23:24.265Z,6.03
2018-04-24T09:25:52.553Z,5.73
2018-04-24T09:28:20.812Z,5.50
2018-04-24T09:30:48.336Z,4.80
2018-04-24T09:33:15.837Z,5.53
2018-04-24T09:35:44.121Z,5.20
2018-04-24T09:38:12.385Z,5.43
2018-04-24T09:40:40.668Z,4.70
2018-04-24T09:43:08.935Z,4.90
2018-04-24T09:45:37.222Z,4.93
2018-04-24T09:48:05.485Z,5.50
2018-04-24T09:50:33.006Z,5.50
2018-04-24T09:53:00.505Z,5.07
2018-04-24T09:55:28.021Z,4.47
2018-04-24T09:57:55.517Z,4.50
2018-04-24T10:00:28.664Z,4.43
2018-04-24T10:02:56.157Z,4.10
2018-04-24T10:05:23.676Z,4.13
2018-04-24T10:07:51.187Z,4.47
2018-04-24T10:10:19.477Z,4.37
2018-04-24T10:12:47.741Z,4.43
2018-04-24T10:15:16.025Z,4.30
2018-04-24T10:17:44.289Z,5.07
2018-04-24T10:20:11.805Z,3.70
2018-04-24T10:22:39.301Z,4.30
2018-04-24T10:25:06.822Z,4.17
2018-04-24T10:27:34.323Z,3.80
2018-04-24T10:30:01.846Z,3.87
2018-04-24T10:32:29.345Z,3.77
2018-04-24T10:34:57.629Z,4.07
2018-04-24T10:37:25.974Z,4.00
2018-04-24T10:39:54.205Z,3.97
2018-04-24T10:42:21.705Z,3.63
2018-04-24T10:44:49.227Z,3.50
2018-04-24T10:47:16.729Z,3.47
2018-04-24T10:49:44.245Z,4.20
2018-04-24T10:52:11.745Z,3.00
2018-04-24T10:54:39.357Z,3.10
2018-04-24T10:57:06.780Z,3.07
2018-04-24T10:59:34.297Z,3.30
2018-04-24T11:02:01.789Z,3.30
2018-04-24T11:04:29.310Z,3.60
2018-04-24T11:06:56.801Z,3.10
2018-04-24T11:09:25.101Z,3.23
2018-04-24T11:11:53.440Z,3.30
2018-04-24T11:14:21.665Z,4.37
2018-04-24T11:16:49.931Z,3.73
2018-04-24T11:19:18.214Z,3.63
2018-04-24T11:21:46.477Z,3.47
2018-04-24T11:24:13.997Z,3.30
2018-04-24T11:26:41.549Z,3.20
2018-04-24T11:29:09.793Z,3.50
2018-04-24T11:31:37.289Z,3.13
2018-04-24T11:34:04.882Z,3.10
2018-04-24T11:36:32.328Z,2.80
2018-04-24T11:38:59.853Z,3.40
2018-04-24T11:41:27.362Z,3.03
2018-04-24T11:43:55.707Z,3.30
2018-04-24T11:46:23.182Z,3.10
2018-04-24T11:48:50.701Z,2.90
2018-04-24T11:51:18.197Z,3.07
2018-04-24T11:53:45.718Z,3.10
2018-04-24T11:56:13.217Z,2.60
2018-04-24T11:58:40.733Z,3.10
2018-04-24T12:01:08.232Z,2.97
2018-04-24T12:03:35.755Z,2.90
2018-04-24T12:06:03.253Z,3.10
2018-04-24T12:08:30.772Z,3.40
2018-04-24T12:10:58.270Z,2.70
2018-04-24T12:13:25.793Z,2.80
2018-04-24T12:15:53.293Z,2.93
2018-04-24T12:18:20.813Z,2.87
2018-04-24T12:20:48.305Z,3.17
2018-04-24T12:23:15.825Z,2.67
2018-04-24T12:25:43.321Z,2.53
2018-04-24T12:28:10.841Z,2.80
2018-04-24T12:30:38.388Z,2.67
2018-04-24T12:33:05.869Z,2.67
2018-04-24T12:35:33.370Z,3.30
2018-04-24T12:38:00.896Z,3.20
2018-04-24T12:40:28.745Z,3.10
2018-04-24T12:42:56.269Z,3.30
2018-04-24T12:45:24.534Z,3.40
2018-04-24T12:47:52.053Z,3.20
2018-04-24T12:50:19.545Z,2.80
2018-04-24T12:52:47.069Z,2.53
2018-04-24T12:55:14.565Z,3.07
2018-04-24T12:57:42.085Z,2.80
2018-04-24T13:00:09.581Z,3.03
2018-04-24T13:02:37.104Z,2.70
2018-04-24T13:05:04.605Z,3.73
2018-04-24T13:07:32.893Z,3.50
2018-04-24T13:10:01.153Z,3.60
2018-04-24T13:12:29.450Z,3.97
2018-04-24T13:14:57.728Z,3.77
2018-04-24T13:17:26.021Z,4.00
2018-04-24T13:19:53.521Z,4.00
2018-04-24T13:22:21.049Z,3.70
2018-04-24T13:24:48.548Z,3.53
2018-04-24T13:27:16.074Z,3.40
2018-04-24T13:29:43.573Z,4.10
2018-04-24T13:32:11.092Z,3.10
2018-04-24T13:34:38.594Z,4.10
2018-04-24T13:37:06.110Z,3.70
2018-04-24T13:39:33.613Z,3.80
2018-04-24T13:42:01.135Z,3.13
2018-04-24T13:44:28.633Z,2.80
2018-04-24T13:46:56.158Z,3.20
2018-04-24T13:49:23.657Z,3.27
2018-04-24T13:51:51.943Z,3.10
2018-04-24T13:54:20.209Z,3.37
2018-04-24T13:56:48.497Z,2.83
2018-04-24T13:59:16.765Z,3.13
2018-04-24T14:01:45.052Z,2.80
2018-04-24T14:04:13.317Z,2.80
2018-04-24T14:06:41.596Z,2.73
2018-04-24T14:09:09.865Z,2.67
2018-04-24T14:11:38.154Z,2.80
2018-04-24T14:14:06.423Z,2.50
2018-04-24T14:16:34.704Z,2.50
2018-04-24T14:19:02.964Z,2.83
2018-04-24T14:21:30.557Z,2.63
2018-04-24T14:23:58.004Z,2.50
2018-04-24T14:26:26.298Z,2.37
2018-04-24T14:28:53.805Z,2.37
2018-04-24T14:31:22.838Z,2.50
2018-04-24T14:33:50.346Z,2.27
2018-04-24T14:36:17.869Z,2.40
2018-04-24T14:38:45.366Z,2.40
2018-04-24T14:41:12.888Z,2.63
2018-04-24T14:43:40.388Z,2.60
2018-04-24T14:46:07.889Z,2.40
2018-04-24T14:48:36.196Z,2.60
2018-04-24T14:51:03.722Z,2.47
2018-04-24T14:53:31.985Z,2.10
2018-04-24T14:56:00.249Z,2.57
2018-04-24T14:58:27.770Z,2.20
2018-04-24T15:00:55.271Z,1.93
2018-04-24T15:03:22.797Z,2.00
2018-04-24T15:05:50.298Z,1.80
2018-04-24T15:08:18.590Z,1.97
2018-04-24T15:10:46.856Z,2.03
2018-04-24T15:13:15.136Z,1.70
2018-04-24T15:15:43.401Z,1.87
2018-04-24T15:18:11.690Z,2.20
2018-04-24T15:20:39.960Z,1.80
2018-04-24T15:23:08.253Z,1.80
2018-04-24T15:25:35.756Z,1.80
2018-04-24T15:28:03.347Z,1.70
2018-04-24T15:30:30.793Z,2.07
2018-04-24T15:32:58.322Z,2.03
2018-04-24T15:35:25.820Z,1.80
2018-04-24T15:37:53.345Z,1.73
2018-04-24T15:40:20.841Z,1.93
2018-04-24T15:42:49.133Z,2.10
2018-04-24T15:45:17.397Z,2.20
2018-04-24T15:47:45.684Z,1.70
2018-04-24T15:50:13.941Z,2.13
2018-04-24T15:52:41.463Z,2.00
2018-04-24T15:55:08.957Z,2.10
2018-04-24T15:57:36.481Z,2.03
2018-04-24T16:00:03.981Z,2.13
2018-04-24T16:02:31.505Z,2.37
2018-04-24T16:04:59.005Z,2.20
2018-04-24T16:07:27.293Z,2.60
2018-04-24T16:09:55.557Z,2.47
2018-04-24T16:12:23.840Z,2.20
2018-04-24T16:14:52.109Z,2.80
2018-04-24T16:17:20.401Z,2.30
2018-04-24T16:19:48.689Z,2.27
2018-04-24T16:22:16.212Z,3.40
2018-04-24T16:24:43.713Z,2.50
2018-04-24T16:27:11.298Z,2.60
2018-04-24T16:29:38.776Z,2.43
2018-04-24T16:32:06.301Z,2.40
2018-04-24T16:34:33.793Z,2.50
2018-04-24T16:37:01.329Z,2.70
2018-04-24T16:39:28.839Z,3.00
2018-04-24T16:41:57.129Z,2.80
2018-04-24T16:44:24.625Z,2.90
2018-04-24T16:46:52.144Z,2.83
2018-04-24T16:49:20.401Z,2.83
2018-04-24T16:51:48.689Z,2.90
2018-04-24T16:54:17.023Z,2.97
2018-04-24T16:56:45.266Z,2.37
2018-04-24T16:59:12.765Z,2.70
2018-04-24T17:01:40.289Z,2.73
2018-04-24T17:04:07.788Z,2.53
2018-04-24T17:06:35.305Z,3.07
2018-04-24T17:09:02.801Z,2.83
2018-04-24T17:11:30.334Z,2.90
2018-04-24T17:13:57.833Z,3.10
2018-04-24T17:16:25.354Z,2.77
2018-04-24T17:18:52.854Z,2.90
2018-04-24T17:21:20.377Z,3.20
2018-04-24T17:23:47.873Z,3.00
2018-04-24T17:26:15.396Z,2.90
2018-04-24T17:28:42.899Z,3.23
2018-04-24T17:31:11.181Z,3.23
2018-04-24T17:33:39.450Z,2.87
2018-04-24T17:36:07.758Z,2.80
2018-04-24T17:38:35.256Z,2.90
2018-04-24T17:41:02.778Z,2.77
2018-04-24T17:43:30.284Z,3.30
2018-04-24T17:45:57.809Z,2.97
2018-04-24T17:48:25.309Z,3.07
2018-04-24T17:50:52.829Z,2.53
2018-04-24T17:53:20.324Z,3.50
2018-04-24T17:55:47.844Z,2.90
2018-04-24T17:58:15.340Z,2.80
2018-04-24T18:00:42.861Z,2.83
2018-04-24T18:03:10.361Z,3.13
2018-04-24T18:05:37.887Z,3.33
2018-04-24T18:08:05.380Z,3.10
2018-04-24T18:10:32.905Z,2.80
2018-04-24T18:13:00.412Z,2.93
2018-04-24T18:15:28.700Z,2.60
2018-04-24T18:17:56.970Z,3.00
2018-04-24T18:20:25.277Z,2.80
2018-04-24T18:22:52.792Z,49.70
2018-04-24T18:25:20.293Z,3.10
2018-04-24T18:27:47.856Z,3.00
2018-04-24T18:30:15.347Z,3.80
2018-04-24T18:32:42.873Z,3.00
2018-04-24T18:35:10.373Z,3.90
2018-04-24T18:37:37.893Z,3.73
2018-04-24T18:40:05.394Z,3.53
2018-04-24T18:42:32.901Z,3.20
2018-04-24T18:45:00.425Z,3.10
2018-04-24T18:47:27.932Z,3.80
2018-04-24T18:49:55.465Z,3.67
2018-04-24T18:52:22.965Z,3.30
2018-04-24T18:54:50.485Z,3.73
2018-04-24T18:57:17.980Z,3.53
2018-04-24T18:59:45.476Z,3.07
2018-04-24T19:02:13.764Z,3.47
2018-04-24T19:04:42.031Z,3.40
2018-04-24T19:07:10.317Z,3.40
2018-04-24T19:09:38.585Z,3.47
2018-04-24T19:12:06.849Z,3.00
2018-04-24T19:14:34.373Z,3.10
2018-04-24T19:17:01.873Z,3.30
2018-04-24T19:19:30.166Z,3.00
2018-04-24T19:21:58.433Z,3.20
2018-04-24T19:24:32.445Z,3.33
2018-04-24T19:27:00.709Z,3.17
2018-04-24T19:29:28.229Z,3.40
2018-04-24T19:32:01.479Z,3.50
2018-04-24T19:34:29.758Z,3.13
2018-04-24T19:36:58.030Z,3.40
2018-04-24T19:39:31.916Z,3.33
2018-04-24T19:41:59.413Z,3.97
2018-04-24T19:44:26.916Z,3.73
2018-04-24T19:46:54.441Z,3.43
2018-04-24T19:49:27.640Z,3.20
2018-04-24T19:51:55.157Z,3.60
2018-04-24T19:54:23.424Z,3.40
2018-04-24T19:56:50.949Z,3.57
2018-04-24T19:59:18.448Z,3.30
2018-04-24T20:01:45.945Z,3.80
2018-04-24T20:04:13.468Z,3.50
2018-04-24T20:06:41.765Z,3.27
2018-04-24T20:09:09.265Z,3.70
2018-04-24T20:11:36.793Z,3.73
2018-04-24T20:14:04.292Z,3.70
2018-04-24T20:16:31.825Z,4.03
2018-04-24T20:18:59.320Z,3.60
2018-04-24T20:21:27.590Z,3.63
2018-04-24T20:23:55.185Z,3.53
2018-04-24T20:26:22.634Z,4.20
2018-04-24T20:28:50.920Z,4.40
2018-04-24T20:31:19.185Z,3.90
2018-04-24T20:33:47.449Z,4.10
2018-04-24T20:36:14.969Z,4.90
2018-04-24T20:38:42.500Z,5.77
2018-04-24T20:41:10.764Z,3.80
2018-04-24T20:43:39.029Z,3.87
2018-04-24T20:46:07.298Z,4.23
2018-04-24T20:48:34.818Z,4.70
2018-04-24T20:51:02.325Z,4.63
2018-04-24T20:53:30.665Z,5.20
2018-04-24T20:55:58.137Z,4.77
2018-04-24T20:58:25.667Z,5.50
2018-04-24T21:00:53.179Z,5.87
2018-04-24T21:03:21.469Z,5.23
2018-04-24T21:05:49.734Z,5.80
2018-04-24T21:08:17.997Z,6.27
2018-04-24T21:10:45.525Z,5.80
2018-04-24T21:13:13.063Z,5.60
2018-04-24T21:15:41.333Z,5.43
2018-04-24T21:18:08.837Z,5.70
2018-04-24T21:20:36.337Z,4.87
2018-04-24T21:23:03.861Z,5.50
2018-04-24T21:25:31.363Z,5.20
2018-04-24T21:27:58.893Z,5.10
2018-04-24T21:30:26.389Z,5.30
2018-04-24T21:32:53.911Z,5.77
2018-04-24T21:35:21.410Z,5.33
2018-04-24T21:37:48.913Z,5.60
2018-04-24T21:40:16.436Z,5.67
2018-04-24T21:42:43.941Z,5.50
2018-04-24T21:45:11.457Z,6.03
2018-04-24T21:47:38.953Z,5.40
2018-04-24T21:50:07.976Z,5.20
2018-04-24T21:52:36.241Z,5.40
2018-04-24T21:55:04.501Z,5.20
2018-04-24T21:57:32.025Z,5.10
2018-04-24T21:59:59.530Z,5.43
2018-04-24T22:02:27.820Z,5.77
2018-04-24T22:04:56.085Z,5.20
2018-04-24T22:07:24.373Z,5.27
2018-04-24T22:09:52.654Z,5.40
2018-04-24T22:12:20.940Z,5.40
2018-04-24T22:14:48.437Z,5.53
2018-04-24T22:17:15.937Z,5.77
2018-04-24T22:19:44.221Z,5.70
2018-04-24T22:22:12.488Z,5.97
2018-04-24T22:24:40.777Z,6.10
2018-04-24T22:27:09.046Z,5.17
2018-04-24T22:29:37.314Z,5.33
2018-04-24T22:32:05.604Z,5.60
2018-04-24T22:34:33.870Z,5.60
2018-04-24T22:37:02.157Z,6.10
2018-04-24T22:39:30.421Z,5.90
2018-04-24T22:41:58.710Z,5.40
2018-04-24T22:44:26.977Z,5.53
2018-04-24T22:46:55.237Z,6.00
2018-04-24T22:49:22.756Z,5.70
2018-04-24T22:51:50.252Z,5.67
2018-04-24T22:54:17.769Z,6.23
2018-04-24T22:56:45.272Z,6.23
2018-04-24T22:59:12.777Z,6.00
2018-04-24T23:01:40.293Z,6.07
2018-04-24T23:04:07.793Z,6.33
2018-04-24T23:06:35.316Z,6.10
2018-04-24T23:09:02.825Z,6.63
2018-04-24T23:11:42.097Z,5.90
2018-04-24T23:14:21.541Z,5.87
2018-04-24T23:17:00.882Z,6.43
2018-04-24T23:19:40.217Z,6.70
2018-04-24T23:22:08.506Z,5.97
2018-04-24T23:24:36.773Z,7.07
2018-04-24T23:27:04.301Z,7.23
2018-04-24T23:29:31.802Z,6.40
2018-04-24T23:32:00.073Z,7.03
2018-04-24T23:34:28.365Z,6.90
2018-04-24T23:36:56.642Z,7.90
2018-04-24T23:39:24.951Z,7.40
2018-04-24T23:41:52.448Z,7.37
2018-04-24T23:44:19.975Z,8.70
2018-04-24T23:46:47.477Z,8.90
2018-04-24T23:49:14.989Z,8.40
2018-04-24T23:51:42.505Z,8.30
2018-04-24T23:54:10.773Z,8.10
2018-04-24T23:56:38.297Z,8.10
2018-04-24T23:59:05.814Z,8.67
